Time,TemperatureF,DewpointF,PressureIn,WindDirection,WindDirectionDegrees,WindSpeedMPH,WindSpeedGustMPH,Humidity,HourlyPrecipIn,Conditions,Clouds,dailyrainin,SolarRadiationWatts/m^2,SoftwareType,DateUTC
2013-02-24 00:04:00,20.0,17.0,30.03,SSW,205,0.0,1.0,88,0.00,,,0.07,0,weatherlink.com 1.10,2013-02-24 06:04:00,
2013-02-24 00:19:00,19.7,17.0,30.02,SSW,205,0.0,1.0,89,0.00,,,0.07,0,weatherlink.com 1.10,2013-02-24 06:19:00,
2013-02-24 00:34:00,19.6,17.0,30.03,SSW,205,0.0,0.0,89,0.00,,,0.07,0,weatherlink.com 1.10,2013-02-24 06:34:00,
2013-02-24 00:49:00,19.4,17.0,30.03,SSW,205,0.0,0.0,89,0.00,,,0.07,0,weatherlink.com 1.10,2013-02-24 06:49:00,
2013-02-24 01:04:00,19.1,16.0,30.02,SSW,205,0.0,0.0,89,0.00,,,0.07,0,weatherlink.com 1.10,2013-02-24 07:04:00,
2013-02-24 01:19:00,18.9,16.0,30.03,SSW,205,0.0,0.0,89,0.00,,,0.07,0,weatherlink.com 1.10,2013-02-24 07:19:00,
2013-02-24 01:34:00,19.0,16.0,30.03,SSW,205,0.0,0.0,89,0.00,,,0.07,0,weatherlink.com 1.10,2013-02-24 07:34:00,
2013-02-24 01:49:00,18.9,17.0,30.04,SSW,205,0.0,1.0,90,0.00,,,0.07,0,weatherlink.com 1.10,2013-02-24 07:49:00,
2013-02-24 02:04:00,18.9,17.0,30.04,SSW,205,0.0,0.0,90,0.00,,,0.07,0,weatherlink.com 1.10,2013-02-24 08:04:00,
2013-02-24 02:19:00,18.8,16.0,30.03,SSW,205,0.0,1.0,90,0.00,,,0.07,0,weatherlink.com 1.10,2013-02-24 08:19:00,
2013-02-24 02:34:00,19.0,17.0,30.03,SSW,205,0.0,1.0,90,0.00,,,0.07,0,weatherlink.com 1.10,2013-02-24 08:34:00,
2013-02-24 02:49:00,18.7,16.0,30.03,SSW,205,0.0,0.0,90,0.00,,,0.07,0,weatherlink.com 1.10,2013-02-24 08:49:00,
2013-02-24 03:04:00,18.2,16.0,30.03,SSW,205,0.0,0.0,90,0.00,,,0.07,0,weatherlink.com 1.10,2013-02-24 09:04:00,
2013-02-24 03:19:00,18.0,16.0,30.02,SSW,205,0.0,0.0,90,0.00,,,0.07,0,weatherlink.com 1.10,2013-02-24 09:19:00,
2013-02-24 03:34:00,17.8,15.0,30.02,SSW,205,0.0,0.0,90,0.00,,,0.07,0,weatherlink.com 1.10,2013-02-24 09:34:00,
2013-02-24 03:49:00,17.5,15.0,30.02,SSW,205,0.0,0.0,90,0.00,,,0.07,0,weatherlink.com 1.10,2013-02-24 09:49:00,
2013-02-24 04:04:00,17.0,14.0,30.01,SSW,205,0.0,0.0,89,0.00,,,0.07,0,weatherlink.com 1.10,2013-02-24 10:04:00,
2013-02-24 04:19:00,16.6,14.0,30.01,SSW,205,0.0,0.0,90,0.00,,,0.07,0,weatherlink.com 1.10,2013-02-24 10:19:00,
2013-02-24 04:34:00,16.4,14.0,30.02,SSW,205,0.0,0.0,90,0.00,,,0.07,0,weatherlink.com 1.10,2013-02-24 10:34:00,
2013-02-24 04:49:00,16.3,14.0,30.02,SSW,205,0.0,0.0,90,0.00,,,0.07,0,weatherlink.com 1.10,2013-02-24 10:49:00,
2013-02-24 05:04:00,16.3,14.0,30.02,SSW,205,0.0,0.0,90,0.00,,,0.07,0,weatherlink.com 1.10,2013-02-24 11:04:00,
2013-02-24 05:19:00,16.1,14.0,30.03,SSW,205,0.0,0.0,89,0.00,,,0.07,0,weatherlink.com 1.10,2013-02-24 11:19:00,
2013-02-24 05:34:00,15.8,13.0,30.04,SSW,205,0.0,1.0,90,0.00,,,0.07,0,weatherlink.com 1.10,2013-02-24 11:34:00,
2013-02-24 05:49:00,15.8,13.0,30.03,SSW,205,0.0,1.0,90,0.00,,,0.07,0,weatherlink.com 1.10,2013-02-24 11:49:00,
2013-02-24 06:04:00,15.5,13.0,30.03,SSW,205,0.0,0.0,90,0.00,,,0.07,0,weatherlink.com 1.10,2013-02-24 12:04:00,
2013-02-24 06:19:00,15.0,12.0,30.03,SSW,205,0.0,0.0,89,0.00,,,0.07,0,weatherlink.com 1.10,2013-02-24 12:19:00,
2013-02-24 06:34:00,14.6,12.0,30.03,SSW,205,0.0,0.0,89,0.00,,,0.07,0,weatherlink.com 1.10,2013-02-24 12:34:00,
2013-02-24 06:49:00,14.4,12.0,30.03,SSW,205,0.0,0.0,89,0.00,,,0.07,0,weatherlink.com 1.10,2013-02-24 12:49:00,
2013-02-24 07:04:00,14.6,12.0,30.03,SSW,205,0.0,0.0,90,0.00,,,0.07,7,weatherlink.com 1.10,2013-02-24 13:04:00,
2013-02-24 07:19:00,15.1,13.0,30.03,SSW,205,0.0,1.0,90,0.00,,,0.07,18,weatherlink.com 1.10,2013-02-24 13:19:00,
2013-02-24 07:34:00,17.0,15.0,30.04,SSW,205,0.0,1.0,91,0.00,,,0.07,28,weatherlink.com 1.10,2013-02-24 13:34:00,
2013-02-24 07:49:00,18.8,17.0,30.04,SSW,205,0.0,0.0,91,0.00,,,0.07,62,weatherlink.com 1.10,2013-02-24 13:49:00,
2013-02-24 08:04:00,21.0,19.0,30.05,SSW,205,0.0,0.0,92,0.00,,,0.07,113,weatherlink.com 1.10,2013-02-24 14:04:00,
2013-02-24 08:19:00,21.0,19.0,30.05,SSW,198,0.0,1.0,91,0.00,,,0.07,163,weatherlink.com 1.10,2013-02-24 14:19:00,
2013-02-24 08:34:00,22.9,21.0,30.06,SSW,198,0.0,0.0,91,0.00,,,0.07,246,weatherlink.com 1.10,2013-02-24 14:34:00,
2013-02-24 08:49:00,25.9,23.0,30.06,SSW,198,0.0,0.0,90,0.00,,,0.00,272,weatherlink.com 1.10,2013-02-24 14:49:00,
2013-02-24 09:04:00,28.5,24.0,30.06,SSW,198,0.0,1.0,84,0.00,,,0.00,315,weatherlink.com 1.10,2013-02-24 15:04:00,
2013-02-24 09:19:00,30.5,25.0,30.06,SSW,198,0.0,1.0,81,0.00,,,0.00,362,weatherlink.com 1.10,2013-02-24 15:19:00,
2013-02-24 09:34:00,32.1,27.0,30.06,SSW,198,1.0,2.0,80,0.01,,,0.01,401,weatherlink.com 1.10,2013-02-24 15:34:00,
2013-02-24 09:49:00,34.5,28.0,30.06,SSW,198,0.0,2.0,77,0.01,,,0.01,436,weatherlink.com 1.10,2013-02-24 15:49:00,
2013-02-24 10:04:00,36.3,29.0,30.05,SSW,198,1.0,2.0,74,0.01,,,0.01,475,weatherlink.com 1.10,2013-02-24 16:04:00,
2013-02-24 10:20:00,38.9,29.0,30.05,ESE,103,3.0,9.0,69,0.01,,,0.01,510,weatherlink.com 1.10,2013-02-24 16:20:00,
2013-02-24 10:35:00,40.0,30.0,30.05,ESE,117,2.0,14.0,67,0.01,,,0.02,543,weatherlink.com 1.10,2013-02-24 16:35:00,
2013-02-24 10:50:00,41.0,31.0,30.05,ESE,113,4.0,10.0,67,0.01,,,0.02,573,weatherlink.com 1.10,2013-02-24 16:50:00,
2013-02-24 11:05:00,41.0,32.0,30.05,ESE,115,3.0,8.0,71,0.02,,,0.03,599,weatherlink.com 1.10,2013-02-24 17:05:00,
2013-02-24 11:20:00,41.8,33.0,30.05,ESE,121,4.0,9.0,71,0.03,,,0.04,626,weatherlink.com 1.10,2013-02-24 17:20:00,
2013-02-24 11:35:00,43.5,33.0,30.05,ENE,78,4.0,9.0,67,0.02,,,0.04,643,weatherlink.com 1.10,2013-02-24 17:35:00,
2013-02-24 11:50:00,45.2,33.0,30.05,ESE,108,1.0,5.0,63,0.03,,,0.05,659,weatherlink.com 1.10,2013-02-24 17:50:00,
2013-02-24 12:05:00,46.2,28.0,30.05,ESE,104,4.0,5.0,49,0.03,,,0.06,671,weatherlink.com 1.10,2013-02-24 18:05:00,
2013-02-24 12:20:00,46.5,27.0,30.04,East,94,7.0,7.0,47,0.02,,,0.06,680,weatherlink.com 1.10,2013-02-24 18:20:00,
2013-02-24 12:35:00,46.7,27.0,30.02,East,98,3.0,8.0,47,0.03,,,0.07,686,weatherlink.com 1.10,2013-02-24 18:35:00,
2013-02-24 12:50:00,47.0,27.0,30.02,East,96,3.0,8.0,46,0.02,,,0.07,687,weatherlink.com 1.10,2013-02-24 18:50:00,
2013-02-24 13:05:00,47.0,27.0,30.01,ENE,59,7.0,8.0,46,0.02,,,0.08,682,weatherlink.com 1.10,2013-02-24 19:05:00,
2013-02-24 13:20:00,47.2,28.0,30.00,NE,51,3.0,8.0,47,0.02,,,0.08,675,weatherlink.com 1.10,2013-02-24 19:20:00,
2013-02-24 13:35:00,47.3,27.0,29.99,NE,55,2.0,6.0,46,0.01,,,0.08,664,weatherlink.com 1.10,2013-02-24 19:35:00,
2013-02-24 13:50:00,46.9,27.0,29.98,ENE,75,4.0,9.0,47,0.02,,,0.09,654,weatherlink.com 1.10,2013-02-24 19:50:00,
2013-02-24 14:05:00,47.4,27.0,29.97,East,94,3.0,9.0,46,0.01,,,0.09,638,weatherlink.com 1.10,2013-02-24 20:05:00,
2013-02-24 14:20:00,48.1,28.0,29.96,ENE,76,4.0,8.0,46,0.02,,,0.10,608,weatherlink.com 1.10,2013-02-24 20:20:00,
2013-02-24 14:35:00,47.9,28.0,29.95,ENE,76,3.0,9.0,46,0.02,,,0.10,517,weatherlink.com 1.10,2013-02-24 20:35:00,
2013-02-24 14:50:00,47.9,28.0,29.95,ENE,77,5.0,8.0,47,0.01,,,0.10,605,weatherlink.com 1.10,2013-02-24 20:50:00,
2013-02-24 15:05:00,47.9,28.0,29.95,ENE,65,4.0,8.0,47,0.01,,,0.10,501,weatherlink.com 1.10,2013-02-24 21:05:00,
2013-02-24 15:21:00,47.8,28.0,29.95,ENE,76,3.0,10.0,47,0.00,,,0.10,476,weatherlink.com 1.10,2013-02-24 21:21:00,
2013-02-24 15:36:00,48.0,29.0,29.94,East,87,5.0,10.0,48,0.00,,,0.10,418,weatherlink.com 1.10,2013-02-24 21:36:00,
2013-02-24 15:51:00,47.6,29.0,29.94,East,96,3.0,10.0,48,0.00,,,0.10,392,weatherlink.com 1.10,2013-02-24 21:51:00,
2013-02-24 16:06:00,47.5,29.0,29.93,ENE,62,7.0,10.0,49,0.00,,,0.10,292,weatherlink.com 1.10,2013-02-24 22:06:00,
2013-02-24 16:21:00,45.5,28.0,29.94,ENE,61,5.0,10.0,51,0.00,,,0.10,329,weatherlink.com 1.10,2013-02-24 22:21:00,
2013-02-24 16:36:00,44.5,28.0,29.93,NE,38,8.0,9.0,53,0.00,,,0.10,269,weatherlink.com 1.10,2013-02-24 22:36:00,
2013-02-24 16:51:00,43.7,28.0,29.93,ENE,69,2.0,10.0,54,0.00,,,0.10,230,weatherlink.com 1.10,2013-02-24 22:51:00,
2013-02-24 17:06:00,42.9,28.0,29.93,NE,38,7.0,12.0,56,0.00,,,0.10,123,weatherlink.com 1.10,2013-02-24 23:06:00,
2013-02-24 17:21:00,42.2,28.0,29.94,NNE,30,3.0,8.0,57,0.00,,,0.10,63,weatherlink.com 1.10,2013-02-24 23:21:00,
2013-02-24 17:36:00,41.7,28.0,29.95,ENE,66,2.0,7.0,58,0.00,,,0.10,23,weatherlink.com 1.10,2013-02-24 23:36:00,
2013-02-24 17:51:00,41.1,28.0,29.95,ENE,65,2.0,5.0,59,0.00,,,0.10,18,weatherlink.com 1.10,2013-02-24 23:51:00,
2013-02-24 18:06:00,40.2,28.0,29.96,NE,55,3.0,6.0,61,0.00,,,0.10,5,weatherlink.com 1.10,2013-02-25 00:06:00,
2013-02-24 18:21:00,39.4,27.0,29.96,ENE,57,3.0,7.0,62,0.00,,,0.10,0,weatherlink.com 1.10,2013-02-25 00:21:00,
2013-02-24 18:36:00,38.6,27.0,29.97,ENE,78,3.0,7.0,64,0.00,,,0.10,0,weatherlink.com 1.10,2013-02-25 00:36:00,
2013-02-24 18:51:00,38.0,27.0,29.97,NE,38,3.0,7.0,66,0.00,,,0.10,0,weatherlink.com 1.10,2013-02-25 00:51:00,
2013-02-24 19:06:00,37.6,27.0,29.97,NE,53,3.0,7.0,66,0.00,,,0.10,0,weatherlink.com 1.10,2013-02-25 01:06:00,
2013-02-24 19:21:00,37.2,27.0,29.98,East,80,2.0,8.0,67,0.00,,,0.10,0,weatherlink.com 1.10,2013-02-25 01:21:00,
2013-02-24 19:36:00,36.9,27.0,29.98,ENE,57,4.0,8.0,67,0.00,,,0.10,0,weatherlink.com 1.10,2013-02-25 01:36:00,
2013-02-24 19:51:00,36.6,27.0,29.98,NE,52,3.0,7.0,68,0.00,,,0.10,0,weatherlink.com 1.10,2013-02-25 01:51:00,
2013-02-24 20:06:00,36.2,27.0,29.98,NE,51,4.0,9.0,68,0.00,,,0.10,0,weatherlink.com 1.10,2013-02-25 02:06:00,
2013-02-24 20:21:00,36.0,27.0,29.98,East,79,3.0,9.0,69,0.00,,,0.10,0,weatherlink.com 1.10,2013-02-25 02:21:00,
2013-02-24 20:36:00,35.7,26.0,29.98,NE,56,2.0,8.0,69,0.00,,,0.10,0,weatherlink.com 1.10,2013-02-25 02:36:00,
2013-02-24 20:51:00,35.7,26.0,29.99,East,82,2.0,8.0,69,0.00,,,0.10,0,weatherlink.com 1.10,2013-02-25 02:51:00,
2013-02-24 21:06:00,35.7,26.0,29.99,ENE,59,5.0,7.0,69,0.00,,,0.10,0,weatherlink.com 1.10,2013-02-25 03:06:00,
2013-02-24 21:21:00,35.9,27.0,30.00,ENE,76,3.0,5.0,69,0.00,,,0.10,0,weatherlink.com 1.10,2013-02-25 03:21:00,
2013-02-24 21:36:00,36.0,26.0,30.01,NE,42,2.0,7.0,68,0.00,,,0.10,0,weatherlink.com 1.10,2013-02-25 03:36:00,
2013-02-24 21:51:00,36.1,26.0,30.02,NE,47,5.0,7.0,68,0.00,,,0.10,0,weatherlink.com 1.10,2013-02-25 03:51:00,
2013-02-24 22:06:00,36.2,27.0,30.02,NNE,26,1.0,6.0,68,0.00,,,0.10,0,weatherlink.com 1.10,2013-02-25 04:06:00,
2013-02-24 22:21:00,36.4,26.0,30.02,NNE,13,2.0,6.0,67,0.00,,,0.10,0,weatherlink.com 1.10,2013-02-25 04:21:00,
2013-02-24 22:36:00,36.5,26.0,30.02,NE,51,4.0,7.0,67,0.00,,,0.10,0,weatherlink.com 1.10,2013-02-25 04:36:00,
2013-02-24 22:51:00,36.5,26.0,30.01,ENE,67,4.0,9.0,66,0.00,,,0.10,0,weatherlink.com 1.10,2013-02-25 04:51:00,
2013-02-24 23:06:00,36.4,26.0,30.00,NNE,32,6.0,8.0,67,0.00,,,0.10,0,weatherlink.com 1.10,2013-02-25 05:06:00,
2013-02-24 23:21:00,36.2,26.0,30.00,ESE,115,5.0,13.0,67,0.00,,,0.10,0,weatherlink.com 1.10,2013-02-25 05:21:00,
2013-02-24 23:36:00,35.9,26.0,29.99,NE,50,6.0,9.0,68,0.00,,,0.10,0,weatherlink.com 1.10,2013-02-25 05:36:00,
2013-02-24 23:51:00,35.6,26.0,29.99,East,96,1.0,9.0,69,0.00,,,0.10,0,weatherlink.com 1.10,2013-02-25 05:51:00,